Hanzhong, China
Current Conditions -  °F | °C
As of 2:00 PM on Monday 26 Jan 2015 (Local Time) from ZLXY Reporting Station
Haze Haze  
Wind Chill: 38°   Ceiling: Unl
Heat Index: 41°   Visibility: 0.75mi
Dew Point: 30°   Wind: 4mph
Humidity: 65%   Direction: 180°S
Pressure: 30.21"   Gusts: NA
Location:  33.13°N, 107.03°E
Report Text: ZLXY 260600Z 18002MPS 140V240 1200 R23R/1100N R23L/1000NHZNSC05/M01 Q1023 NOSIG
Loading
Personal Weather Stations






























Interactive Weather Map New forecast layout! Learn more

10-Day Weather Forecast

Advertisements
Track Severe Weather on mobile